createdAt,value
2023-05-05T00:20:22.015Z,53.55
2023-05-05T00:32:27.122Z,54.80
2023-05-05T00:38:04.360Z,55.55
2023-05-05T00:43:40.824Z,55.19
2023-05-05T00:55:58.803Z,54.90
2023-05-05T01:08:23.234Z,53.78
2023-05-05T01:46:26.532Z,56.20
2023-05-05T01:55:42.031Z,55.98
2023-05-05T01:58:10.566Z,56.02
2023-05-05T02:21:01.351Z,57.05
2023-05-05T02:23:31.452Z,57.14
2023-05-05T02:26:07.545Z,57.12
2023-05-05T02:38:23.624Z,57.73
2023-05-05T02:47:47.584Z,56.49
2023-05-05T03:03:48.888Z,58.07
2023-05-05T03:30:10.621Z,60.67
2023-05-05T04:42:28.405Z,68.49
2023-05-05T04:44:56.236Z,69.39
2023-05-05T05:01:46.171Z,70.75
2023-05-05T05:04:38.258Z,70.18
2023-05-05T05:22:50.197Z,71.31
2023-05-05T07:12:07.974Z,64.15
2023-05-05T07:51:22.838Z,62.37
2023-05-05T08:27:49.588Z,77.21
2023-05-05T08:30:21.217Z,77.92
2023-05-05T08:32:48.863Z,78.07
2023-05-05T08:35:16.271Z,78.63
2023-05-05T08:37:43.443Z,78.43
2023-05-05T08:40:14.699Z,75.27
2023-05-05T08:42:42.479Z,76.34
2023-05-05T08:53:31.559Z,75.45
2023-05-05T08:56:01.220Z,73.68
2023-05-05T08:58:47.639Z,74.90
2023-05-05T09:01:35.714Z,75.09
2023-05-05T09:18:33.599Z,75.30
2023-05-05T09:21:01.378Z,74.81
2023-05-05T09:23:47.185Z,74.63
2023-05-05T09:26:14.819Z,74.64
2023-05-05T09:28:54.988Z,74.90
2023-05-05T09:31:38.616Z,76.07
2023-05-05T09:34:17.456Z,76.15
2023-05-05T09:36:49.264Z,73.95
2023-05-05T09:39:21.035Z,74.90
2023-05-05T09:59:28.208Z,69.55
2023-05-05T10:05:17.486Z,67.82
2023-05-05T10:13:49.350Z,64.35
2023-05-05T10:45:14.348Z,64.30
2023-05-05T10:47:44.521Z,64.61
2023-05-05T10:50:31.225Z,65.29
2023-05-05T10:53:17.945Z,65.18
2023-05-05T10:55:58.718Z,65.61
2023-05-05T10:58:50.924Z,63.91
2023-05-05T11:01:36.870Z,62.31
2023-05-05T11:04:17.229Z,62.87
2023-05-05T11:07:13.702Z,64.22
2023-05-05T11:10:09.013Z,61.96
2023-05-05T11:13:02.868Z,62.66
2023-05-05T11:15:30.706Z,61.92
2023-05-05T11:18:01.963Z,61.20
2023-05-05T11:23:42.478Z,60.18
2023-05-05T11:26:10.049Z,61.59
2023-05-05T11:28:56.144Z,59.93
2023-05-05T11:31:27.186Z,58.79
2023-05-05T11:33:54.344Z,60.04
2023-05-05T11:36:38.289Z,59.94
2023-05-05T11:39:26.661Z,60.03
2023-05-05T11:42:10.967Z,59.12
2023-05-05T11:44:38.318Z,60.17
2023-05-05T11:47:05.363Z,59.26
2023-05-05T11:49:33.602Z,61.37
2023-05-05T11:52:06.019Z,59.58
2023-05-05T11:54:34.800Z,59.46
2023-05-05T11:57:05.315Z,56.30
2023-05-05T11:59:33.285Z,57.12
2023-05-05T12:02:03.196Z,58.76
2023-05-05T12:04:31.728Z,56.29
2023-05-05T12:07:01.625Z,57.07
2023-05-05T12:09:31.344Z,56.90
2023-05-05T12:12:11.661Z,57.74
2023-05-05T12:14:58.438Z,57.28
2023-05-05T12:29:11.076Z,60.00
2023-05-05T13:24:49.886Z,46.44
2023-05-05T14:45:35.413Z,43.41
2023-05-05T17:45:40.113Z,39.60
2023-05-05T18:24:59.235Z,39.86
2023-05-05T18:44:46.989Z,39.33
2023-05-05T18:47:14.647Z,37.50
2023-05-05T19:14:20.728Z,37.46
2023-05-05T20:03:45.221Z,39.92
2023-05-05T20:49:49.938Z,44.55
2023-05-05T20:52:34.017Z,44.49
2023-05-05T21:12:20.216Z,46.48
2023-05-05T21:14:47.433Z,45.38
2023-05-05T21:17:14.738Z,46.38
2023-05-05T21:19:41.881Z,47.82
2023-05-05T21:22:09.133Z,47.65
2023-05-05T21:24:38.371Z,47.75
2023-05-05T21:27:05.744Z,47.15
2023-05-05T21:29:37.610Z,47.39
2023-05-05T21:32:08.446Z,47.91
2023-05-05T21:34:36.297Z,47.52
2023-05-05T21:37:06.758Z,48.33
2023-05-05T21:39:35.366Z,49.67
2023-05-05T21:42:02.616Z,48.15
2023-05-05T21:44:30.592Z,47.92
2023-05-05T21:47:00.030Z,48.72
2023-05-05T21:49:29.821Z,48.11
2023-05-05T21:51:58.689Z,48.32
2023-05-05T21:54:26.689Z,48.82
2023-05-05T21:56:56.896Z,50.19
2023-05-05T21:59:24.047Z,50.58
2023-05-05T22:01:51.475Z,50.96
2023-05-05T22:04:18.990Z,51.39
2023-05-05T22:06:46.252Z,52.08
2023-05-05T22:09:13.265Z,51.48
2023-05-05T22:11:40.276Z,51.19
2023-05-05T22:14:07.389Z,51.71
2023-05-05T22:16:34.510Z,53.47
2023-05-05T22:19:01.804Z,51.59
2023-05-05T22:21:28.760Z,53.04
2023-05-05T22:23:55.783Z,53.18
2023-05-05T22:26:22.963Z,52.20
2023-05-05T22:28:50.155Z,51.90
2023-05-05T22:31:17.625Z,51.69
2023-05-05T22:33:44.751Z,52.08
2023-05-05T22:36:11.736Z,51.80
2023-05-05T22:38:38.913Z,51.85
2023-05-05T22:41:07.624Z,53.28
2023-05-05T22:43:34.787Z,53.40
2023-05-05T22:46:01.774Z,52.60
2023-05-05T22:48:30.054Z,52.39
2023-05-05T22:50:57.395Z,53.10
2023-05-05T22:53:24.568Z,53.86
2023-05-05T22:55:51.937Z,53.53
2023-05-05T22:58:19.069Z,52.81
2023-05-05T23:00:46.163Z,53.22
2023-05-05T23:03:13.952Z,53.33
2023-05-05T23:05:40.996Z,53.94
2023-05-05T23:08:08.088Z,54.82
2023-05-05T23:10:35.360Z,55.09
2023-05-05T23:13:02.417Z,54.32
2023-05-05T23:15:30.283Z,54.46
2023-05-05T23:17:57.491Z,56.81
2023-05-05T23:20:24.702Z,54.78
2023-05-05T23:22:51.889Z,55.75
2023-05-05T23:25:18.902Z,56.14
2023-05-05T23:27:48.211Z,56.59
2023-05-05T23:30:15.691Z,56.58
2023-05-05T23:32:44.992Z,57.09
2023-05-05T23:35:12.478Z,56.82
2023-05-05T23:37:39.717Z,56.13
2023-05-05T23:40:07.428Z,57.12
2023-05-05T23:42:34.489Z,57.11
2023-05-05T23:45:01.705Z,58.46
2023-05-05T23:47:31.277Z,58.99
2023-05-05T23:49:58.240Z,60.61
2023-05-05T23:52:25.342Z,59.24
2023-05-05T23:54:52.292Z,60.79
2023-05-05T23:57:19.469Z,62.27
